createdAt,value
2023-04-16T00:01:33.924Z,96139.94
2023-04-16T00:04:01.860Z,96143.91
2023-04-16T00:06:29.468Z,96141.91
2023-04-16T00:08:57.000Z,96127.28
2023-04-16T00:11:24.582Z,96122.84
2023-04-16T00:13:52.168Z,96132.50
2023-04-16T00:16:19.678Z,96122.06
2023-04-16T00:18:48.600Z,96136.16
2023-04-16T00:21:16.192Z,96136.75
2023-04-16T00:23:43.738Z,96147.06
2023-04-16T00:26:11.285Z,96138.19
2023-04-16T00:28:38.810Z,96132.00
2023-04-16T00:31:06.333Z,96141.16
2023-04-16T00:33:34.076Z,96136.00
2023-04-16T00:36:02.959Z,96130.34
2023-04-16T00:38:32.391Z,96125.09
2023-04-16T00:40:59.962Z,96138.84
2023-04-16T00:43:28.177Z,96140.78
2023-04-16T00:45:57.661Z,96140.41
2023-04-16T00:48:27.918Z,96126.38
2023-04-16T00:50:56.444Z,96111.94
2023-04-16T00:53:25.628Z,96127.13
2023-04-16T00:55:53.505Z,96136.69
2023-04-16T00:58:21.421Z,96136.66
2023-04-16T01:00:49.136Z,96096.69
2023-04-16T01:03:16.888Z,96113.13
2023-04-16T01:05:49.136Z,96137.63
2023-04-16T01:08:18.578Z,96141.19
2023-04-16T01:10:47.398Z,96121.44
2023-04-16T01:13:15.258Z,96118.19
2023-04-16T01:15:43.009Z,96124.63
2023-04-16T01:18:15.897Z,96138.03
2023-04-16T01:20:44.932Z,96141.44
2023-04-16T01:23:12.819Z,96146.38
2023-04-16T01:25:40.711Z,96134.94
2023-04-16T01:28:08.917Z,96152.34
2023-04-16T01:30:36.484Z,96154.13
2023-04-16T01:33:04.082Z,96143.84
2023-04-16T01:35:31.616Z,96163.09
2023-04-16T01:38:00.721Z,96145.03
2023-04-16T01:40:28.213Z,96133.34
2023-04-16T01:42:55.647Z,96152.19
2023-04-16T01:45:23.073Z,96150.78
2023-04-16T01:47:51.400Z,96129.78
2023-04-16T01:50:19.831Z,96132.00
2023-04-16T01:52:47.883Z,96160.09
2023-04-16T01:55:17.073Z,96151.22
2023-04-16T01:57:44.972Z,96111.78
2023-04-16T02:00:13.111Z,96138.94
2023-04-16T02:02:41.534Z,96124.88
2023-04-16T02:05:09.886Z,96116.53
2023-04-16T02:07:37.413Z,96133.13
2023-04-16T02:10:05.359Z,96150.78
2023-04-16T02:12:34.296Z,96146.38
2023-04-16T02:15:01.857Z,96121.09
2023-04-16T02:17:29.358Z,96156.34
2023-04-16T02:19:56.876Z,96163.47
2023-04-16T02:22:24.813Z,96158.13
2023-04-16T02:24:52.314Z,96159.53
2023-04-16T02:27:19.815Z,96157.13
2023-04-16T02:29:48.686Z,96139.72
2023-04-16T02:32:16.421Z,96125.84
2023-04-16T02:34:44.456Z,96126.84
2023-04-16T02:37:12.296Z,96138.72
2023-04-16T02:39:40.202Z,96138.09
2023-04-16T02:42:07.800Z,96134.94
2023-04-16T02:44:35.309Z,96144.44
2023-04-16T02:47:04.107Z,96146.38
2023-04-16T02:49:31.548Z,96152.34
2023-04-16T02:51:59.078Z,96152.38
2023-04-16T02:54:26.582Z,96146.00
2023-04-16T02:56:54.038Z,96158.94
2023-04-16T02:59:21.481Z,96160.88
2023-04-16T03:01:49.074Z,96156.28
2023-04-16T03:04:17.933Z,96163.84
2023-04-16T03:06:45.451Z,96163.03
2023-04-16T03:09:13.143Z,96162.09
2023-04-16T03:11:40.635Z,96157.28
2023-04-16T03:14:08.123Z,96149.69
2023-04-16T03:16:36.395Z,96145.59
2023-04-16T03:19:04.066Z,96130.34
2023-04-16T03:21:33.453Z,96159.84
2023-04-16T03:24:01.796Z,96149.00
2023-04-16T03:26:29.279Z,96149.38
2023-04-16T03:28:56.864Z,96175.28
2023-04-16T03:31:25.287Z,96160.03
2023-04-16T03:33:52.978Z,96156.72
2023-04-16T03:36:20.828Z,96168.19
2023-04-16T03:38:49.753Z,96168.53
2023-04-16T03:41:17.307Z,96162.78
2023-04-16T03:43:44.791Z,96166.38
2023-04-16T03:46:12.303Z,96181.69
2023-04-16T03:48:39.797Z,96168.97
2023-04-16T03:51:07.285Z,96175.28
2023-04-16T03:53:34.805Z,96148.38
2023-04-16T03:56:03.716Z,96158.69
2023-04-16T03:58:31.209Z,96179.69
2023-04-16T04:00:58.649Z,96169.75
2023-04-16T04:03:26.644Z,96182.03
2023-04-16T04:05:54.228Z,96181.69
2023-04-16T04:08:21.732Z,96182.47
2023-04-16T04:10:49.234Z,96160.59
2023-04-16T04:13:18.162Z,96155.28
2023-04-16T04:15:45.661Z,96182.47
2023-04-16T04:18:13.081Z,96161.53
2023-04-16T04:20:40.893Z,96176.94
2023-04-16T04:23:08.478Z,96175.97
2023-04-16T04:25:36.383Z,96182.47
2023-04-16T04:28:03.951Z,96186.63
2023-04-16T04:30:33.150Z,96163.03
2023-04-16T04:33:00.737Z,96169.03
2023-04-16T04:35:28.242Z,96167.09
2023-04-16T04:37:55.768Z,96192.88
2023-04-16T04:40:23.268Z,96182.72
2023-04-16T04:42:50.763Z,96194.22
2023-04-16T04:45:18.295Z,96176.03
2023-04-16T04:47:47.238Z,96195.22
2023-04-16T04:50:14.735Z,96174.38
2023-04-16T04:52:42.349Z,96211.91
2023-04-16T04:55:10.449Z,96205.97
2023-04-16T04:57:38.041Z,96182.19
2023-04-16T05:00:06.229Z,96182.31
2023-04-16T05:02:33.809Z,96194.81
2023-04-16T05:05:02.817Z,96217.03
2023-04-16T05:07:30.666Z,96221.66
2023-04-16T05:09:58.154Z,96218.06
2023-04-16T05:12:25.772Z,96232.59
2023-04-16T05:14:53.184Z,96205.97
2023-04-16T05:17:20.930Z,96230.41
2023-04-16T05:19:48.476Z,96223.72
2023-04-16T05:22:18.854Z,96231.22
2023-04-16T05:24:46.322Z,96236.97
2023-04-16T05:27:13.758Z,96239.75
2023-04-16T05:29:41.255Z,96211.81
2023-04-16T05:32:08.733Z,96243.16
2023-04-16T05:34:36.187Z,96244.09
2023-04-16T05:37:03.728Z,96245.25
2023-04-16T05:39:32.552Z,96245.25
2023-04-16T05:42:00.168Z,96240.50
2023-04-16T05:44:27.670Z,96258.19
2023-04-16T05:46:55.234Z,96247.69
2023-04-16T05:49:22.668Z,96255.00
2023-04-16T05:51:50.960Z,96253.78
2023-04-16T05:54:18.621Z,96256.34
2023-04-16T05:56:47.414Z,96249.38
2023-04-16T05:59:14.845Z,96250.97
2023-04-16T06:01:42.335Z,96265.28
2023-04-16T06:04:09.878Z,96268.22
2023-04-16T06:06:37.786Z,96261.31
2023-04-16T06:09:05.675Z,96266.03
2023-04-16T06:11:34.579Z,96244.00
2023-04-16T06:14:05.289Z,96280.31
2023-04-16T06:16:32.806Z,96269.78
2023-04-16T06:19:00.270Z,96270.22
2023-04-16T06:21:31.867Z,96262.44
2023-04-16T06:23:59.634Z,96260.31
2023-04-16T06:26:29.411Z,96261.47
2023-04-16T06:28:56.969Z,96274.78
2023-04-16T06:31:26.244Z,96282.72
2023-04-16T06:33:53.743Z,96289.25
2023-04-16T06:36:21.149Z,96289.06
2023-04-16T06:38:48.699Z,96280.91
2023-04-16T06:41:16.236Z,96277.16
2023-04-16T06:43:43.754Z,96286.66
2023-04-16T06:46:11.349Z,96281.66
2023-04-16T06:48:40.140Z,96289.59
2023-04-16T06:51:07.699Z,96292.19
2023-04-16T06:53:37.275Z,96295.75
2023-04-16T06:56:05.120Z,96306.13
2023-04-16T06:58:32.812Z,96305.28
2023-04-16T07:01:00.560Z,96301.69
2023-04-16T07:03:28.331Z,96288.06
2023-04-16T07:05:57.494Z,96295.75
2023-04-16T07:08:25.553Z,96292.19
2023-04-16T07:10:53.802Z,96295.94
2023-04-16T07:13:23.596Z,96314.19
2023-04-16T07:15:51.161Z,96317.19
2023-04-16T07:18:20.712Z,96285.84
2023-04-16T07:20:49.032Z,96305.84
2023-04-16T07:23:18.145Z,96313.78
2023-04-16T07:25:46.055Z,96306.44
2023-04-16T07:28:13.614Z,96302.44
2023-04-16T07:30:41.127Z,96295.72
2023-04-16T07:33:08.589Z,96299.91
2023-04-16T07:35:36.336Z,96289.13
2023-04-16T07:38:03.812Z,96330.91
2023-04-16T07:40:32.723Z,96310.34
2023-04-16T07:43:00.342Z,96322.09
2023-04-16T07:45:28.035Z,96326.84
2023-04-16T07:47:57.523Z,96330.94
2023-04-16T07:50:25.846Z,96333.53
2023-04-16T07:52:53.324Z,96337.13
2023-04-16T07:55:20.796Z,96349.25
2023-04-16T07:57:51.257Z,96343.28
2023-04-16T08:00:18.959Z,96348.63
2023-04-16T08:02:46.581Z,96354.59
2023-04-16T08:05:14.195Z,96354.75
2023-04-16T08:07:41.740Z,96358.00
2023-04-16T08:10:09.971Z,96354.41
2023-04-16T08:12:37.548Z,96350.81
2023-04-16T08:15:07.925Z,96346.22
2023-04-16T08:17:37.498Z,96375.84
2023-04-16T08:20:05.857Z,96373.72
2023-04-16T08:22:33.996Z,96364.94
2023-04-16T08:25:01.633Z,96379.69
2023-04-16T08:27:29.079Z,96374.19
2023-04-16T08:29:57.189Z,96371.63
2023-04-16T08:32:27.109Z,96376.56
2023-04-16T08:34:54.588Z,96388.09
2023-04-16T08:37:22.066Z,96378.78
2023-04-16T08:39:49.506Z,96368.88
2023-04-16T08:42:24.685Z,96368.44
2023-04-16T08:44:56.970Z,96385.47
2023-04-16T08:47:28.637Z,96392.16
2023-04-16T08:49:59.732Z,96395.19
2023-04-16T08:52:31.632Z,96397.94
2023-04-16T08:55:05.193Z,96392.13
2023-04-16T08:57:40.480Z,96396.88
2023-04-16T09:00:09.779Z,96416.53
2023-04-16T09:02:39.209Z,96403.66
2023-04-16T09:05:08.641Z,96410.47
2023-04-16T09:07:36.284Z,96396.31
2023-04-16T09:10:04.507Z,96399.63
2023-04-16T09:12:32.173Z,96414.59
2023-04-16T09:15:02.950Z,96410.28
2023-04-16T09:17:30.655Z,96399.31
2023-04-16T09:19:59.679Z,96421.53
2023-04-16T09:22:27.462Z,96401.00
2023-04-16T09:24:55.106Z,96429.97
2023-04-16T09:27:25.448Z,96417.47
2023-04-16T09:29:53.624Z,96408.03
2023-04-16T09:32:27.078Z,96430.81
2023-04-16T09:34:57.713Z,96408.84
2023-04-16T09:37:27.191Z,96432.31
2023-04-16T09:39:56.121Z,96420.28
2023-04-16T09:42:27.206Z,96399.06
2023-04-16T09:44:56.247Z,96405.13
2023-04-16T09:47:27.399Z,96425.75
2023-04-16T09:49:59.980Z,96423.66
2023-04-16T09:52:28.742Z,96420.72
2023-04-16T09:54:56.918Z,96430.06
2023-04-16T09:57:26.078Z,96435.53
2023-04-16T09:59:54.655Z,96425.44
2023-04-16T10:02:23.576Z,96435.88
2023-04-16T10:04:52.914Z,96436.25
2023-04-16T10:07:21.620Z,96450.50
2023-04-16T10:09:52.447Z,96441.59
2023-04-16T10:12:20.572Z,96441.75
2023-04-16T10:14:50.098Z,96452.78
2023-04-16T10:17:19.702Z,96453.94
2023-04-16T10:19:47.754Z,96451.81
2023-04-16T10:22:15.260Z,96455.72
2023-04-16T10:24:42.903Z,96464.50
2023-04-16T10:27:12.200Z,96455.69
2023-04-16T10:29:40.246Z,96446.84
2023-04-16T10:32:08.794Z,96434.09
2023-04-16T10:34:36.910Z,96449.38
2023-04-16T10:37:04.566Z,96455.53
2023-04-16T10:39:34.257Z,96454.78
2023-04-16T10:42:09.391Z,96454.63
2023-04-16T10:44:38.450Z,96465.56
2023-04-16T10:47:11.510Z,96453.63
2023-04-16T10:49:39.049Z,96465.94
2023-04-16T10:52:11.767Z,96451.34
2023-04-16T10:54:40.147Z,96443.44
2023-04-16T10:57:09.607Z,96465.03
2023-04-16T10:59:39.752Z,96465.00
2023-04-16T11:02:09.527Z,96451.22
2023-04-16T11:04:38.520Z,96471.09
2023-04-16T11:07:16.993Z,96475.44
2023-04-16T11:10:04.193Z,96468.06
2023-04-16T11:12:35.707Z,96470.91
2023-04-16T11:15:06.481Z,96473.13
2023-04-16T11:17:38.782Z,96470.91
2023-04-16T11:20:13.584Z,96466.31
2023-04-16T11:22:47.480Z,96457.00
2023-04-16T11:25:20.456Z,96468.78
2023-04-16T11:27:48.019Z,96460.13
2023-04-16T11:30:17.873Z,96452.19
2023-04-16T11:32:47.233Z,96472.56
2023-04-16T11:35:16.616Z,96464.47
2023-04-16T11:37:44.748Z,96470.75
2023-04-16T11:40:13.527Z,96445.34
2023-04-16T11:42:47.776Z,96436.41
2023-04-16T11:45:20.457Z,96448.75
2023-04-16T11:47:51.780Z,96459.69
2023-04-16T11:50:21.503Z,96446.91
2023-04-16T11:52:49.951Z,96452.88
2023-04-16T11:55:17.573Z,96467.25
2023-04-16T11:57:45.942Z,96465.66
2023-04-16T12:00:15.070Z,96468.06
2023-04-16T12:02:45.366Z,96472.50
2023-04-16T12:05:31.678Z,96472.44
2023-04-16T12:08:00.475Z,96477.56
2023-04-16T12:10:28.620Z,96481.09
2023-04-16T12:13:12.488Z,96451.16
2023-04-16T12:15:48.158Z,96494.16
2023-04-16T12:18:17.257Z,96469.28
2023-04-16T12:20:46.128Z,96487.53
2023-04-16T12:23:24.230Z,96495.97
2023-04-16T12:25:52.066Z,96482.94
2023-04-16T12:28:28.978Z,96454.75
2023-04-16T12:30:58.937Z,96487.72
2023-04-16T12:33:27.894Z,96493.09
2023-04-16T12:35:55.373Z,96490.78
2023-04-16T12:38:24.234Z,96493.69
2023-04-16T12:40:52.724Z,96494.06
2023-04-16T12:43:22.059Z,96482.59
2023-04-16T12:45:49.585Z,96479.13
2023-04-16T12:48:17.216Z,96495.88
2023-04-16T12:50:46.426Z,96495.72
2023-04-16T12:53:13.946Z,96494.31
2023-04-16T12:55:41.635Z,96491.13
2023-04-16T12:58:11.126Z,96494.19
2023-04-16T13:00:40.696Z,96488.09
2023-04-16T13:03:08.496Z,96472.63
2023-04-16T13:05:36.442Z,96479.16
2023-04-16T13:08:05.505Z,96491.94
2023-04-16T13:10:33.019Z,96463.41
2023-04-16T13:13:00.562Z,96485.56
2023-04-16T13:15:28.049Z,96476.50
2023-04-16T13:17:55.754Z,96490.06
2023-04-16T13:20:24.607Z,96491.38
2023-04-16T13:22:52.227Z,96484.63
2023-04-16T13:25:21.181Z,96489.31
2023-04-16T13:27:48.693Z,96473.09
2023-04-16T13:30:16.814Z,96497.03
2023-04-16T13:32:44.645Z,96479.28
2023-04-16T13:35:12.539Z,96479.44
2023-04-16T13:37:40.038Z,96475.38
2023-04-16T13:40:09.189Z,96494.97
2023-04-16T13:42:38.130Z,96484.44
2023-04-16T13:45:06.384Z,96477.41
2023-04-16T13:47:34.580Z,96485.53
2023-04-16T13:50:02.109Z,96479.44
2023-04-16T13:52:29.543Z,96480.84
2023-04-16T13:54:58.907Z,96474.38
2023-04-16T13:57:27.503Z,96477.03
2023-04-16T13:59:56.627Z,96479.06
2023-04-16T14:02:25.913Z,96483.06
2023-04-16T14:04:53.812Z,96475.25
2023-04-16T14:07:25.550Z,96480.09
2023-04-16T14:09:53.287Z,96480.31
2023-04-16T14:12:21.136Z,96476.13
2023-04-16T14:14:48.643Z,96482.25
2023-04-16T14:17:17.435Z,96484.09
2023-04-16T14:19:44.906Z,96447.31
2023-04-16T14:22:12.358Z,96480.34
2023-04-16T14:24:39.806Z,96483.72
2023-04-16T14:27:07.237Z,96481.00
2023-04-16T14:29:34.708Z,96475.59
2023-04-16T14:32:02.191Z,96481.34
2023-04-16T14:34:31.026Z,96478.88
2023-04-16T14:36:58.550Z,96476.97
2023-04-16T14:39:26.008Z,96481.25
2023-04-16T14:41:53.564Z,96471.06
2023-04-16T14:44:21.539Z,96482.50
2023-04-16T14:46:49.009Z,96482.66
2023-04-16T14:49:16.847Z,96470.16
2023-04-16T14:51:49.407Z,96479.91
2023-04-16T14:54:17.012Z,96478.31
2023-04-16T14:56:44.496Z,96474.25
2023-04-16T14:59:12.254Z,96475.13
2023-04-16T15:01:41.164Z,96478.41
2023-04-16T15:04:09.050Z,96461.81
2023-04-16T15:06:36.671Z,96473.72
2023-04-16T15:09:06.957Z,96483.22
2023-04-16T15:11:34.514Z,96474.59
2023-04-16T15:14:02.023Z,96473.47
2023-04-16T15:16:29.535Z,96451.72
2023-04-16T15:18:56.984Z,96477.56
2023-04-16T15:21:24.537Z,96472.31
2023-04-16T15:23:52.089Z,96459.53
2023-04-16T15:26:20.916Z,96472.06
2023-04-16T15:28:48.348Z,96466.13
2023-04-16T15:31:15.884Z,96447.97
2023-04-16T15:33:43.587Z,96468.75
2023-04-16T15:36:11.263Z,96470.91
2023-04-16T15:38:38.739Z,96470.81
2023-04-16T15:41:06.258Z,96474.91
2023-04-16T15:43:35.200Z,96472.31
2023-04-16T15:46:02.802Z,96465.66
2023-04-16T15:48:30.366Z,96478.09
2023-04-16T15:50:58.466Z,96469.19
2023-04-16T15:53:26.092Z,96477.91
2023-04-16T15:55:53.819Z,96476.94
2023-04-16T15:58:22.220Z,96479.09
2023-04-16T16:00:51.382Z,96473.22
2023-04-16T16:03:19.768Z,96475.03
2023-04-16T16:05:48.138Z,96474.34
2023-04-16T16:08:15.874Z,96484.88
2023-04-16T16:10:43.504Z,96478.06
2023-04-16T16:13:13.119Z,96489.91
2023-04-16T16:15:41.694Z,96474.69
2023-04-16T16:18:10.690Z,96470.03
2023-04-16T16:20:38.755Z,96483.72
2023-04-16T16:23:06.312Z,96490.97
2023-04-16T16:25:35.051Z,96482.81
2023-04-16T16:28:06.523Z,96468.25
2023-04-16T16:30:34.350Z,96478.91
2023-04-16T16:33:01.821Z,96480.34
2023-04-16T16:35:30.709Z,96485.88
2023-04-16T16:37:59.256Z,96480.00
2023-04-16T16:40:26.819Z,96473.88
2023-04-16T16:42:54.483Z,96479.09
2023-04-16T16:45:22.008Z,96488.13
2023-04-16T16:47:49.771Z,96483.06
2023-04-16T16:50:17.462Z,96483.72
2023-04-16T16:52:46.356Z,96482.94
2023-04-16T16:55:17.131Z,96483.81
2023-04-16T16:57:46.126Z,96489.91
2023-04-16T17:00:16.065Z,96490.84
2023-04-16T17:02:44.038Z,96493.22
2023-04-16T17:05:12.410Z,96488.00
2023-04-16T17:07:40.272Z,96489.72
2023-04-16T17:10:11.187Z,96457.22
2023-04-16T17:12:38.807Z,96495.00
2023-04-16T17:15:07.045Z,96491.25
2023-04-16T17:17:34.749Z,96493.38
2023-04-16T17:20:08.771Z,96492.25
2023-04-16T17:22:36.544Z,96500.03
2023-04-16T17:25:04.901Z,96468.59
2023-04-16T17:27:34.491Z,96466.75
2023-04-16T17:30:02.417Z,96501.06
2023-04-16T17:32:32.581Z,96476.28
2023-04-16T17:35:01.023Z,96500.03
2023-04-16T17:37:29.054Z,96469.00
2023-04-16T17:39:57.127Z,96465.66
2023-04-16T17:42:25.457Z,96492.50
2023-04-16T17:44:54.539Z,96491.50
2023-04-16T17:47:22.371Z,96485.09
2023-04-16T17:49:50.070Z,96501.44
2023-04-16T17:52:17.945Z,96520.59
2023-04-16T17:54:45.939Z,96522.75
2023-04-16T17:57:15.042Z,96505.63
2023-04-16T17:59:42.901Z,96497.31
2023-04-16T18:02:12.223Z,96471.44
2023-04-16T18:04:40.308Z,96473.00
2023-04-16T18:07:10.676Z,96524.84
2023-04-16T18:09:40.665Z,96503.06
2023-04-16T18:12:08.831Z,96492.66
2023-04-16T18:14:38.824Z,96516.13
2023-04-16T18:17:06.951Z,96480.31
2023-04-16T18:19:36.683Z,96521.19
2023-04-16T18:22:04.686Z,96518.38
2023-04-16T18:24:33.349Z,96517.06
2023-04-16T18:27:01.657Z,96519.19
2023-04-16T18:29:29.534Z,96508.28
2023-04-16T18:31:59.222Z,96503.34
2023-04-16T18:34:29.555Z,96504.13
2023-04-16T18:36:58.637Z,96515.00
2023-04-16T18:39:26.381Z,96520.41
2023-04-16T18:41:54.141Z,96527.13
2023-04-16T18:44:21.939Z,96531.50
2023-04-16T18:46:49.894Z,96519.63
2023-04-16T18:49:17.920Z,96492.47
2023-04-16T18:51:45.657Z,96549.56
2023-04-16T18:54:14.818Z,96534.41
2023-04-16T18:56:42.531Z,96523.25
2023-04-16T18:59:10.556Z,96524.06
2023-04-16T19:01:38.714Z,96546.19
2023-04-16T19:04:06.882Z,96522.47
2023-04-16T19:06:34.720Z,96544.31
2023-04-16T19:09:02.577Z,96511.00
2023-04-16T19:11:31.790Z,96531.19
2023-04-16T19:14:02.006Z,96528.25
2023-04-16T19:16:31.576Z,96545.56
2023-04-16T19:18:59.484Z,96551.53
2023-04-16T19:21:27.525Z,96526.56
2023-04-16T19:23:57.568Z,96538.19
2023-04-16T19:26:25.597Z,96552.69
2023-04-16T19:28:57.262Z,96544.66
2023-04-16T19:31:26.086Z,96553.13
2023-04-16T19:33:53.987Z,96532.44
2023-04-16T19:36:21.877Z,96509.94
2023-04-16T19:38:50.340Z,96549.94
2023-04-16T19:41:18.614Z,96514.16
2023-04-16T19:43:47.035Z,96553.81
2023-04-16T19:46:17.157Z,96555.84
2023-04-16T19:48:45.821Z,96527.72
2023-04-16T19:51:13.767Z,96537.19
2023-04-16T19:53:43.601Z,96546.03
2023-04-16T19:56:12.298Z,96523.41
2023-04-16T19:58:40.293Z,96539.84
2023-04-16T20:01:10.350Z,96522.63
2023-04-16T20:03:39.980Z,96548.59
2023-04-16T20:06:07.932Z,96558.59
2023-04-16T20:08:35.866Z,96552.19
2023-04-16T20:11:03.888Z,96541.84
2023-04-16T20:13:44.409Z,96555.13
2023-04-16T20:16:13.537Z,96569.34
2023-04-16T20:18:43.335Z,96559.97
2023-04-16T20:21:11.523Z,96546.91
2023-04-16T20:23:39.237Z,96541.22
2023-04-16T20:26:07.486Z,96553.97
2023-04-16T20:28:35.231Z,96568.84
2023-04-16T20:31:03.183Z,96548.78
2023-04-16T20:33:31.095Z,96559.97
2023-04-16T20:36:00.589Z,96548.88
2023-04-16T20:38:32.422Z,96556.00
2023-04-16T20:41:10.004Z,96573.72
2023-04-16T20:43:40.541Z,96568.53
2023-04-16T20:46:08.295Z,96569.69
2023-04-16T20:48:36.088Z,96566.53
2023-04-16T20:51:07.592Z,96570.94
2023-04-16T20:53:35.253Z,96565.31
2023-04-16T20:56:02.751Z,96569.69
2023-04-16T20:58:30.863Z,96559.75
2023-04-16T21:00:58.877Z,96561.56
2023-04-16T21:03:26.467Z,96553.91
2023-04-16T21:05:56.273Z,96556.50
2023-04-16T21:08:25.295Z,96553.53
2023-04-16T21:10:52.869Z,96536.88
2023-04-16T21:13:20.915Z,96563.56
2023-04-16T21:15:48.577Z,96556.94
2023-04-16T21:18:16.936Z,96557.94
2023-04-16T21:20:44.478Z,96537.91
2023-04-16T21:23:12.179Z,96553.91
2023-04-16T21:25:41.364Z,96559.44
2023-04-16T21:28:09.090Z,96521.78
2023-04-16T21:30:36.743Z,96556.97
2023-04-16T21:33:04.495Z,96556.94
2023-04-16T21:35:32.949Z,96556.94
2023-04-16T21:38:00.401Z,96555.53
2023-04-16T21:40:27.891Z,96537.22
2023-04-16T21:42:56.733Z,96547.59
2023-04-16T21:45:24.223Z,96562.75
2023-04-16T21:47:51.739Z,96552.75
2023-04-16T21:50:19.293Z,96536.91
2023-04-16T21:52:47.036Z,96550.00
2023-04-16T21:55:14.774Z,96559.88
2023-04-16T21:57:42.326Z,96555.13
2023-04-16T22:00:13.895Z,96541.84
2023-04-16T22:02:42.927Z,96561.16
2023-04-16T22:05:11.559Z,96563.41
2023-04-16T22:07:39.207Z,96552.44
2023-04-16T22:10:08.605Z,96540.31
2023-04-16T22:12:37.724Z,96569.25
2023-04-16T22:15:05.963Z,96565.72
2023-04-16T22:17:35.799Z,96545.09
2023-04-16T22:20:06.807Z,96565.56
2023-04-16T22:22:34.328Z,96546.94
2023-04-16T22:25:01.924Z,96571.38
2023-04-16T22:27:29.558Z,96535.84
2023-04-16T22:29:57.236Z,96560.81
2023-04-16T22:32:25.143Z,96554.06
2023-04-16T22:34:54.245Z,96550.91
2023-04-16T22:37:21.774Z,96558.63
2023-04-16T22:39:49.270Z,96550.13
2023-04-16T22:42:16.969Z,96554.31
2023-04-16T22:44:44.754Z,96533.00
2023-04-16T22:47:12.333Z,96550.47
2023-04-16T22:49:39.822Z,96553.88
2023-04-16T22:52:08.734Z,96553.34
2023-04-16T22:54:36.322Z,96541.53
2023-04-16T22:57:03.919Z,96557.91
2023-04-16T22:59:32.200Z,96529.25
2023-04-16T23:02:00.007Z,96545.41
2023-04-16T23:04:27.908Z,96553.16
2023-04-16T23:06:55.789Z,96544.34
2023-04-16T23:09:24.733Z,96521.97
2023-04-16T23:11:52.261Z,96546.56
2023-04-16T23:14:21.211Z,96538.59
2023-04-16T23:16:48.802Z,96520.97
2023-04-16T23:19:16.368Z,96544.78
2023-04-16T23:21:44.514Z,96538.03
2023-04-16T23:24:12.076Z,96559.69
2023-04-16T23:26:40.885Z,96520.75
2023-04-16T23:29:08.746Z,96550.97
2023-04-16T23:31:36.551Z,96555.78
2023-04-16T23:34:04.175Z,96560.97
2023-04-16T23:36:31.956Z,96553.03
2023-04-16T23:38:59.445Z,96535.72
2023-04-16T23:41:26.997Z,96560.63
2023-04-16T23:43:55.937Z,96561.97
2023-04-16T23:46:23.739Z,96563.81
2023-04-16T23:48:52.526Z,96517.97
2023-04-16T23:51:20.529Z,96522.75
2023-04-16T23:53:48.516Z,96556.03
2023-04-16T23:56:18.600Z,96559.59
2023-04-16T23:58:46.270Z,96528.66
